Nathrop, CO

5:04 AM MST on December 26, 2014 (GMT -0700)
Lake County | Change Station
CLOSE
Current Station
Airport
Location: Leadville,
Elevation: 9928 ft
Nearby Weather Stations
Active Advisory: Winter Weather Advisory

Elev 9928 ft 39.23 °N, 106.32 °W | Updated 11 minutes ago

Snow
Snow
7 °F
Feels Like -8 °F
N
10
Wind Variable Wind from SSW

Today
High -- | Low -- °F
--% Chance of Precip.
Yesterday
High -- | Low -- °F
Precip. -- in
7:21 AM 4:49 PM
Waxing Crescent, 25% visible
Pressure 29.63 in
Visibility 6.0 miles
Clouds Overcast 3400 ft
Windchill -8 °F
Dew Point 4 °F
Humidity 87%
Rainfall 0.01 in
Snow Depth Not available.
UV 0 out of 12
Pollen .10 out of 12
Air Quality Not available.
Flu Activity Not available.
METAR KLXV 261153Z AUTO 20009KT 6SM BR OVC034 M14/M16 A2960 RMK AO2 SNE46 SLP033 P0000 60001 70002 T11391156 11094 21139 51007

More Conditions Fewer Conditions

Pressure 29.63 in
Visibility 6.0 miles
Clouds Overcast 3400 ft
Windchill -8 °F
Dew Point 4 °F
Humidity 87%
Rainfall 0.01 in
Snow Depth Not available.
UV 0 out of 12
Pollen .10 out of 12
Air Quality Not available.
Flu Activity Not available.
METAR KLXV 261153Z AUTO 20009KT 6SM BR OVC034 M14/M16 A2960 RMK AO2 SNE46 SLP033 P0000 60001 70002 T11391156 11094 21139 51007

More Conditions Fewer Conditions

10-Day Weather Forecast

Almanac

Astronomy

Dec. 26, 2014 Rise Set
Actual Time
Civil Twilight
Nautical Twilight
Astronomical Twilight
Moon
Length of Visible Light
Length of Day
Tomorrow will be .
, % of the Moon is Illuminated

Today's Extremes

State Highs State Lows

Community

WunderPhotos

Upload Photos

1,780,581 photos uploaded!

WunderBlogs® & News

Nearby

Air Quality

  Air Quality AQ Index Pollutant
Not available.

Snow Depth

Station Depth Elevation

Earthquake Activity

City Distance Mag. Time & Date
Minimum magnitude displayed is 2.5.

Coastal Water Temperatures

Place Temperature

Nearby Weather Stations